<?xml version="1.0" encoding="UTF-8" standalone="no" ?>
<gpx xmlns="http://www.topografix.com/GPX/1/1" xmlns:xsi="http://www.w3.org/2001/XMLSchema-instance" xsi:schemaLocation="http://www.topografix.com/GPX/1/1 http://www.topografix.com/GPX/1/1/gpx.xsd" version="1.1" creator="VisuGPX - https://www.visugpx.com">
  <metadata>
    <name>Le Roc de la Vigne</name>
    <desc><![CDATA[#fait]]></desc>
  </metadata>
  <wpt lat="43.74345" lon="3.56574">
    <ele>80</ele>
    <name><![CDATA[Parking après le barrage sur l'Hérault]]></name>
  </wpt>
  <wpt lat="43.74427" lon="3.56324">
    <ele>73</ele>
    <name><![CDATA[Départ de la piste à droite]]></name>
  </wpt>
  <wpt lat="43.74787" lon="3.56079">
    <ele>98</ele>
    <name><![CDATA[Sentier montant à droite]]></name>
  </wpt>
  <wpt lat="43.75683" lon="3.5621">
    <ele>310</ele>
    <name><![CDATA[Mas de l'Arboussier]]></name>
  </wpt>
  <wpt lat="43.75937" lon="3.56175">
    <ele>334</ele>
    <name><![CDATA[Baume du Cellier]]></name>
  </wpt>
  <wpt lat="43.76704" lon="3.55536">
    <ele>594</ele>
    <name><![CDATA[Virer à droite]]></name>
  </wpt>
  <wpt lat="43.76655" lon="3.55949">
    <ele>620</ele>
    <name><![CDATA[Bifurcation]]></name>
  </wpt>
  <wpt lat="43.76606" lon="3.5624">
    <ele>630</ele>
    <name><![CDATA[Ermitage semi-troglodytique,]]></name>
  </wpt>
  <wpt lat="43.76869" lon="3.55818">
    <ele>640</ele>
    <name><![CDATA[A droite au col]]></name>
  </wpt>
  <wpt lat="43.76835" lon="3.56023">
    <ele>646</ele>
    <name><![CDATA[Bifurcation]]></name>
  </wpt>
  <wpt lat="43.77462" lon="3.57115">
    <ele>542</ele>
    <name><![CDATA[Descente à droite]]></name>
  </wpt>
  <wpt lat="43.75849" lon="3.57083">
    <ele>308</ele>
    <name><![CDATA[Hameau de L'Estagnol]]></name>
  </wpt>
  <wpt lat="43.74345" lon="3.56572">
    <ele>80</ele>
    <name><![CDATA[ Parking après le barrage sur l'Hérault]]></name>
  </wpt>
  <trk>
    <name><![CDATA[Le Roc de la Vigne]]></name>
    <trkseg>
      <trkpt lat="43.74345" lon="3.56574">
        <ele>80</ele>
        <time>2021-03-11T09:13:44+01:00</time>
      </trkpt>
      <trkpt lat="43.74342" lon="3.56539">
        <ele>79</ele>
        <time>2021-03-11T09:13:49+01:00</time>
      </trkpt>
      <trkpt lat="43.7435" lon="3.56509">
        <ele>79</ele>
        <time>2021-03-11T09:13:54+01:00</time>
      </trkpt>
      <trkpt lat="43.74379" lon="3.56484">
        <ele>82</ele>
        <time>2021-03-11T09:13:59+01:00</time>
      </trkpt>
      <trkpt lat="43.74404" lon="3.56464">
        <ele>82</ele>
        <time>2021-03-11T09:14:04+01:00</time>
      </trkpt>
      <trkpt lat="43.74419" lon="3.56427">
        <ele>80</ele>
        <time>2021-03-11T09:14:09+01:00</time>
      </trkpt>
      <trkpt lat="43.74424" lon="3.56368">
        <ele>75</ele>
        <time>2021-03-11T09:14:14+01:00</time>
      </trkpt>
      <trkpt lat="43.74427" lon="3.56324">
        <ele>73</ele>
        <time>2021-03-11T09:14:19+01:00</time>
      </trkpt>
      <trkpt lat="43.74439" lon="3.56321">
        <ele>75</ele>
        <time>2021-03-11T09:14:24+01:00</time>
      </trkpt>
      <trkpt lat="43.74508" lon="3.56318">
        <ele>89</ele>
        <time>2021-03-11T09:14:29+01:00</time>
      </trkpt>
      <trkpt lat="43.74579" lon="3.56303">
        <ele>96</ele>
        <time>2021-03-11T09:14:34+01:00</time>
      </trkpt>
      <trkpt lat="43.74601" lon="3.56319">
        <ele>97</ele>
        <time>2021-03-11T09:14:39+01:00</time>
      </trkpt>
      <trkpt lat="43.74623" lon="3.56338">
        <ele>101</ele>
        <time>2021-03-11T09:14:44+01:00</time>
      </trkpt>
      <trkpt lat="43.7464" lon="3.5634">
        <ele>103</ele>
        <time>2021-03-11T09:14:49+01:00</time>
      </trkpt>
      <trkpt lat="43.74655" lon="3.56321">
        <ele>102</ele>
        <time>2021-03-11T09:14:54+01:00</time>
      </trkpt>
      <trkpt lat="43.7465" lon="3.56295">
        <ele>100</ele>
        <time>2021-03-11T09:14:59+01:00</time>
      </trkpt>
      <trkpt lat="43.7464" lon="3.56272">
        <ele>99</ele>
        <time>2021-03-11T09:15:04+01:00</time>
      </trkpt>
      <trkpt lat="43.74633" lon="3.56221">
        <ele>101</ele>
        <time>2021-03-11T09:15:09+01:00</time>
      </trkpt>
      <trkpt lat="43.74684" lon="3.56157">
        <ele>100</ele>
        <time>2021-03-11T09:15:14+01:00</time>
      </trkpt>
      <trkpt lat="43.74731" lon="3.56107">
        <ele>101</ele>
        <time>2021-03-11T09:15:19+01:00</time>
      </trkpt>
      <trkpt lat="43.74766" lon="3.56089">
        <ele>97</ele>
        <time>2021-03-11T09:15:24+01:00</time>
      </trkpt>
      <trkpt lat="43.74787" lon="3.56079">
        <ele>98</ele>
        <time>2021-03-11T09:15:29+01:00</time>
      </trkpt>
      <trkpt lat="43.74822" lon="3.56098">
        <ele>100</ele>
        <time>2021-03-11T09:15:34+01:00</time>
      </trkpt>
      <trkpt lat="43.74855" lon="3.56124">
        <ele>107</ele>
        <time>2021-03-11T09:15:39+01:00</time>
      </trkpt>
      <trkpt lat="43.74888" lon="3.56169">
        <ele>110</ele>
        <time>2021-03-11T09:15:44+01:00</time>
      </trkpt>
      <trkpt lat="43.74911" lon="3.56185">
        <ele>114</ele>
        <time>2021-03-11T09:15:49+01:00</time>
      </trkpt>
      <trkpt lat="43.74937" lon="3.56195">
        <ele>117</ele>
        <time>2021-03-11T09:15:54+01:00</time>
      </trkpt>
      <trkpt lat="43.74957" lon="3.56208">
        <ele>121</ele>
        <time>2021-03-11T09:15:59+01:00</time>
      </trkpt>
      <trkpt lat="43.74993" lon="3.56203">
        <ele>121</ele>
        <time>2021-03-11T09:16:04+01:00</time>
      </trkpt>
      <trkpt lat="43.75011" lon="3.56187">
        <ele>122</ele>
        <time>2021-03-11T09:16:09+01:00</time>
      </trkpt>
      <trkpt lat="43.75016" lon="3.56148">
        <ele>123</ele>
        <time>2021-03-11T09:16:14+01:00</time>
      </trkpt>
      <trkpt lat="43.75024" lon="3.56121">
        <ele>130</ele>
        <time>2021-03-11T09:16:19+01:00</time>
      </trkpt>
      <trkpt lat="43.75033" lon="3.56104">
        <ele>134</ele>
        <time>2021-03-11T09:16:24+01:00</time>
      </trkpt>
      <trkpt lat="43.75044" lon="3.56096">
        <ele>135</ele>
        <time>2021-03-11T09:16:29+01:00</time>
      </trkpt>
      <trkpt lat="43.75039" lon="3.56115">
        <ele>133</ele>
        <time>2021-03-11T09:16:34+01:00</time>
      </trkpt>
      <trkpt lat="43.75048" lon="3.56108">
        <ele>134</ele>
        <time>2021-03-11T09:16:39+01:00</time>
      </trkpt>
      <trkpt lat="43.75049" lon="3.56145">
        <ele>131</ele>
        <time>2021-03-11T09:16:44+01:00</time>
      </trkpt>
      <trkpt lat="43.75061" lon="3.56135">
        <ele>134</ele>
        <time>2021-03-11T09:16:49+01:00</time>
      </trkpt>
      <trkpt lat="43.75072" lon="3.56131">
        <ele>136</ele>
        <time>2021-03-11T09:16:54+01:00</time>
      </trkpt>
      <trkpt lat="43.75088" lon="3.56133">
        <ele>138</ele>
        <time>2021-03-11T09:16:59+01:00</time>
      </trkpt>
      <trkpt lat="43.75113" lon="3.56148">
        <ele>144</ele>
        <time>2021-03-11T09:17:04+01:00</time>
      </trkpt>
      <trkpt lat="43.75151" lon="3.56159">
        <ele>151</ele>
        <time>2021-03-11T09:17:09+01:00</time>
      </trkpt>
      <trkpt lat="43.75175" lon="3.56179">
        <ele>159</ele>
        <time>2021-03-11T09:17:14+01:00</time>
      </trkpt>
      <trkpt lat="43.7521" lon="3.56231">
        <ele>174</ele>
        <time>2021-03-11T09:17:19+01:00</time>
      </trkpt>
      <trkpt lat="43.75225" lon="3.56246">
        <ele>175</ele>
        <time>2021-03-11T09:17:24+01:00</time>
      </trkpt>
      <trkpt lat="43.75244" lon="3.56266">
        <ele>179</ele>
        <time>2021-03-11T09:17:29+01:00</time>
      </trkpt>
      <trkpt lat="43.75263" lon="3.56286">
        <ele>187</ele>
        <time>2021-03-11T09:17:34+01:00</time>
      </trkpt>
      <trkpt lat="43.75294" lon="3.5629">
        <ele>190</ele>
        <time>2021-03-11T09:17:39+01:00</time>
      </trkpt>
      <trkpt lat="43.75329" lon="3.56278">
        <ele>190</ele>
        <time>2021-03-11T09:17:44+01:00</time>
      </trkpt>
      <trkpt lat="43.75341" lon="3.56293">
        <ele>195</ele>
        <time>2021-03-11T09:17:49+01:00</time>
      </trkpt>
      <trkpt lat="43.75339" lon="3.56306">
        <ele>197</ele>
        <time>2021-03-11T09:17:54+01:00</time>
      </trkpt>
      <trkpt lat="43.75344" lon="3.56335">
        <ele>204</ele>
        <time>2021-03-11T09:17:59+01:00</time>
      </trkpt>
      <trkpt lat="43.75362" lon="3.56358">
        <ele>210</ele>
        <time>2021-03-11T09:18:04+01:00</time>
      </trkpt>
      <trkpt lat="43.7541" lon="3.56364">
        <ele>208</ele>
        <time>2021-03-11T09:18:09+01:00</time>
      </trkpt>
      <trkpt lat="43.75439" lon="3.56424">
        <ele>217</ele>
        <time>2021-03-11T09:18:14+01:00</time>
      </trkpt>
      <trkpt lat="43.75456" lon="3.56445">
        <ele>221</ele>
        <time>2021-03-11T09:18:19+01:00</time>
      </trkpt>
      <trkpt lat="43.75477" lon="3.56454">
        <ele>223</ele>
        <time>2021-03-11T09:18:24+01:00</time>
      </trkpt>
      <trkpt lat="43.75514" lon="3.56508">
        <ele>225</ele>
        <time>2021-03-11T09:18:29+01:00</time>
      </trkpt>
      <trkpt lat="43.7553" lon="3.5654">
        <ele>230</ele>
        <time>2021-03-11T09:18:34+01:00</time>
      </trkpt>
      <trkpt lat="43.75545" lon="3.56577">
        <ele>231</ele>
        <time>2021-03-11T09:18:39+01:00</time>
      </trkpt>
      <trkpt lat="43.75546" lon="3.56545">
        <ele>232</ele>
        <time>2021-03-11T09:18:44+01:00</time>
      </trkpt>
      <trkpt lat="43.75537" lon="3.56508">
        <ele>230</ele>
        <time>2021-03-11T09:18:49+01:00</time>
      </trkpt>
      <trkpt lat="43.75537" lon="3.56488">
        <ele>232</ele>
        <time>2021-03-11T09:18:54+01:00</time>
      </trkpt>
      <trkpt lat="43.75544" lon="3.5648">
        <ele>235</ele>
        <time>2021-03-11T09:18:59+01:00</time>
      </trkpt>
      <trkpt lat="43.75543" lon="3.56469">
        <ele>236</ele>
        <time>2021-03-11T09:19:04+01:00</time>
      </trkpt>
      <trkpt lat="43.75546" lon="3.56457">
        <ele>239</ele>
        <time>2021-03-11T09:19:09+01:00</time>
      </trkpt>
      <trkpt lat="43.75553" lon="3.56477">
        <ele>238</ele>
        <time>2021-03-11T09:19:14+01:00</time>
      </trkpt>
      <trkpt lat="43.75558" lon="3.56502">
        <ele>236</ele>
        <time>2021-03-11T09:19:19+01:00</time>
      </trkpt>
      <trkpt lat="43.75566" lon="3.56477">
        <ele>242</ele>
        <time>2021-03-11T09:19:24+01:00</time>
      </trkpt>
      <trkpt lat="43.75563" lon="3.5645">
        <ele>246</ele>
        <time>2021-03-11T09:19:29+01:00</time>
      </trkpt>
      <trkpt lat="43.75571" lon="3.56449">
        <ele>249</ele>
        <time>2021-03-11T09:19:34+01:00</time>
      </trkpt>
      <trkpt lat="43.75581" lon="3.56453">
        <ele>252</ele>
        <time>2021-03-11T09:19:39+01:00</time>
      </trkpt>
      <trkpt lat="43.75563" lon="3.56416">
        <ele>252</ele>
        <time>2021-03-11T09:19:44+01:00</time>
      </trkpt>
      <trkpt lat="43.75581" lon="3.56428">
        <ele>257</ele>
        <time>2021-03-11T09:19:49+01:00</time>
      </trkpt>
      <trkpt lat="43.75599" lon="3.56454">
        <ele>259</ele>
        <time>2021-03-11T09:19:54+01:00</time>
      </trkpt>
      <trkpt lat="43.75599" lon="3.56434">
        <ele>263</ele>
        <time>2021-03-11T09:19:59+01:00</time>
      </trkpt>
      <trkpt lat="43.75589" lon="3.56414">
        <ele>264</ele>
        <time>2021-03-11T09:20:04+01:00</time>
      </trkpt>
      <trkpt lat="43.75565" lon="3.56381">
        <ele>259</ele>
        <time>2021-03-11T09:20:09+01:00</time>
      </trkpt>
      <trkpt lat="43.75566" lon="3.56376">
        <ele>260</ele>
        <time>2021-03-11T09:20:14+01:00</time>
      </trkpt>
      <trkpt lat="43.75573" lon="3.56381">
        <ele>263</ele>
        <time>2021-03-11T09:20:19+01:00</time>
      </trkpt>
      <trkpt lat="43.7558" lon="3.56364">
        <ele>269</ele>
        <time>2021-03-11T09:20:24+01:00</time>
      </trkpt>
      <trkpt lat="43.75595" lon="3.56374">
        <ele>272</ele>
        <time>2021-03-11T09:20:29+01:00</time>
      </trkpt>
      <trkpt lat="43.75614" lon="3.56392">
        <ele>276</ele>
        <time>2021-03-11T09:20:34+01:00</time>
      </trkpt>
      <trkpt lat="43.75615" lon="3.56347">
        <ele>284</ele>
        <time>2021-03-11T09:20:39+01:00</time>
      </trkpt>
      <trkpt lat="43.75625" lon="3.56324">
        <ele>290</ele>
        <time>2021-03-11T09:20:44+01:00</time>
      </trkpt>
      <trkpt lat="43.75649" lon="3.56293">
        <ele>300</ele>
        <time>2021-03-11T09:20:49+01:00</time>
      </trkpt>
      <trkpt lat="43.75636" lon="3.56257">
        <ele>300</ele>
        <time>2021-03-11T09:20:54+01:00</time>
      </trkpt>
      <trkpt lat="43.7563" lon="3.56242">
        <ele>299</ele>
        <time>2021-03-11T09:20:59+01:00</time>
      </trkpt>
      <trkpt lat="43.75634" lon="3.56228">
        <ele>301</ele>
        <time>2021-03-11T09:21:04+01:00</time>
      </trkpt>
      <trkpt lat="43.75647" lon="3.56223">
        <ele>304</ele>
        <time>2021-03-11T09:21:09+01:00</time>
      </trkpt>
      <trkpt lat="43.75683" lon="3.5621">
        <ele>310</ele>
        <time>2021-03-11T09:21:14+01:00</time>
      </trkpt>
      <trkpt lat="43.75708" lon="3.56222">
        <ele>314</ele>
        <time>2021-03-11T09:21:19+01:00</time>
      </trkpt>
      <trkpt lat="43.75717" lon="3.56253">
        <ele>314</ele>
        <time>2021-03-11T09:21:24+01:00</time>
      </trkpt>
      <trkpt lat="43.75731" lon="3.56277">
        <ele>315</ele>
        <time>2021-03-11T09:21:29+01:00</time>
      </trkpt>
      <trkpt lat="43.75751" lon="3.56259">
        <ele>318</ele>
        <time>2021-03-11T09:21:34+01:00</time>
      </trkpt>
      <trkpt lat="43.75766" lon="3.5627">
        <ele>320</ele>
        <time>2021-03-11T09:21:39+01:00</time>
      </trkpt>
      <trkpt lat="43.7578" lon="3.5627">
        <ele>322</ele>
        <time>2021-03-11T09:21:44+01:00</time>
      </trkpt>
      <trkpt lat="43.75815" lon="3.56224">
        <ele>328</ele>
        <time>2021-03-11T09:21:49+01:00</time>
      </trkpt>
      <trkpt lat="43.75845" lon="3.56173">
        <ele>334</ele>
        <time>2021-03-11T09:21:54+01:00</time>
      </trkpt>
      <trkpt lat="43.75876" lon="3.56201">
        <ele>334</ele>
        <time>2021-03-11T09:21:59+01:00</time>
      </trkpt>
      <trkpt lat="43.75883" lon="3.56201">
        <ele>335</ele>
        <time>2021-03-11T09:22:04+01:00</time>
      </trkpt>
      <trkpt lat="43.75891" lon="3.5619">
        <ele>336</ele>
        <time>2021-03-11T09:22:09+01:00</time>
      </trkpt>
      <trkpt lat="43.75913" lon="3.56184">
        <ele>339</ele>
        <time>2021-03-11T09:22:14+01:00</time>
      </trkpt>
      <trkpt lat="43.75937" lon="3.56175">
        <ele>334</ele>
        <time>2021-03-11T09:22:19+01:00</time>
      </trkpt>
      <trkpt lat="43.75892" lon="3.56188">
        <ele>337</ele>
        <time>2021-03-11T09:22:24+01:00</time>
      </trkpt>
      <trkpt lat="43.75929" lon="3.56113">
        <ele>346</ele>
        <time>2021-03-11T09:22:29+01:00</time>
      </trkpt>
      <trkpt lat="43.75966" lon="3.5604">
        <ele>353</ele>
        <time>2021-03-11T09:22:34+01:00</time>
      </trkpt>
      <trkpt lat="43.75993" lon="3.55976">
        <ele>367</ele>
        <time>2021-03-11T09:22:39+01:00</time>
      </trkpt>
      <trkpt lat="43.76003" lon="3.55916">
        <ele>385</ele>
        <time>2021-03-11T09:22:44+01:00</time>
      </trkpt>
      <trkpt lat="43.76018" lon="3.55877">
        <ele>387</ele>
        <time>2021-03-11T09:22:49+01:00</time>
      </trkpt>
      <trkpt lat="43.76039" lon="3.55789">
        <ele>392</ele>
        <time>2021-03-11T09:22:54+01:00</time>
      </trkpt>
      <trkpt lat="43.76038" lon="3.55725">
        <ele>402</ele>
        <time>2021-03-11T09:22:59+01:00</time>
      </trkpt>
      <trkpt lat="43.76027" lon="3.55678">
        <ele>412</ele>
        <time>2021-03-11T09:23:04+01:00</time>
      </trkpt>
      <trkpt lat="43.76029" lon="3.55643">
        <ele>419</ele>
        <time>2021-03-11T09:23:09+01:00</time>
      </trkpt>
      <trkpt lat="43.76056" lon="3.55596">
        <ele>423</ele>
        <time>2021-03-11T09:23:14+01:00</time>
      </trkpt>
      <trkpt lat="43.76111" lon="3.55562">
        <ele>423</ele>
        <time>2021-03-11T09:23:19+01:00</time>
      </trkpt>
      <trkpt lat="43.76117" lon="3.55547">
        <ele>429</ele>
        <time>2021-03-11T09:23:24+01:00</time>
      </trkpt>
      <trkpt lat="43.76137" lon="3.55547">
        <ele>425</ele>
        <time>2021-03-11T09:23:29+01:00</time>
      </trkpt>
      <trkpt lat="43.76143" lon="3.55541">
        <ele>426</ele>
        <time>2021-03-11T09:23:34+01:00</time>
      </trkpt>
      <trkpt lat="43.76153" lon="3.55516">
        <ele>434</ele>
        <time>2021-03-11T09:23:39+01:00</time>
      </trkpt>
      <trkpt lat="43.76168" lon="3.555">
        <ele>437</ele>
        <time>2021-03-11T09:23:44+01:00</time>
      </trkpt>
      <trkpt lat="43.76181" lon="3.55492">
        <ele>439</ele>
        <time>2021-03-11T09:23:49+01:00</time>
      </trkpt>
      <trkpt lat="43.76194" lon="3.55465">
        <ele>450</ele>
        <time>2021-03-11T09:23:54+01:00</time>
      </trkpt>
      <trkpt lat="43.76236" lon="3.55439">
        <ele>456</ele>
        <time>2021-03-11T09:23:59+01:00</time>
      </trkpt>
      <trkpt lat="43.76253" lon="3.55439">
        <ele>454</ele>
        <time>2021-03-11T09:24:04+01:00</time>
      </trkpt>
      <trkpt lat="43.76275" lon="3.55409">
        <ele>472</ele>
        <time>2021-03-11T09:24:09+01:00</time>
      </trkpt>
      <trkpt lat="43.76296" lon="3.55401">
        <ele>479</ele>
        <time>2021-03-11T09:24:14+01:00</time>
      </trkpt>
      <trkpt lat="43.76307" lon="3.55405">
        <ele>478</ele>
        <time>2021-03-11T09:24:19+01:00</time>
      </trkpt>
      <trkpt lat="43.76325" lon="3.55432">
        <ele>470</ele>
        <time>2021-03-11T09:24:24+01:00</time>
      </trkpt>
      <trkpt lat="43.76346" lon="3.55429">
        <ele>478</ele>
        <time>2021-03-11T09:24:29+01:00</time>
      </trkpt>
      <trkpt lat="43.76388" lon="3.55439">
        <ele>492</ele>
        <time>2021-03-11T09:24:34+01:00</time>
      </trkpt>
      <trkpt lat="43.76382" lon="3.55421">
        <ele>494</ele>
        <time>2021-03-11T09:24:39+01:00</time>
      </trkpt>
      <trkpt lat="43.76365" lon="3.55403">
        <ele>494</ele>
        <time>2021-03-11T09:24:44+01:00</time>
      </trkpt>
      <trkpt lat="43.7634" lon="3.55387">
        <ele>490</ele>
        <time>2021-03-11T09:24:49+01:00</time>
      </trkpt>
      <trkpt lat="43.7634" lon="3.55378">
        <ele>494</ele>
        <time>2021-03-11T09:24:54+01:00</time>
      </trkpt>
      <trkpt lat="43.76377" lon="3.55397">
        <ele>501</ele>
        <time>2021-03-11T09:24:59+01:00</time>
      </trkpt>
      <trkpt lat="43.76389" lon="3.55392">
        <ele>507</ele>
        <time>2021-03-11T09:25:04+01:00</time>
      </trkpt>
      <trkpt lat="43.76386" lon="3.55382">
        <ele>510</ele>
        <time>2021-03-11T09:25:09+01:00</time>
      </trkpt>
      <trkpt lat="43.76428" lon="3.55398">
        <ele>520</ele>
        <time>2021-03-11T09:25:14+01:00</time>
      </trkpt>
      <trkpt lat="43.76444" lon="3.55415">
        <ele>519</ele>
        <time>2021-03-11T09:25:19+01:00</time>
      </trkpt>
      <trkpt lat="43.76459" lon="3.55429">
        <ele>520</ele>
        <time>2021-03-11T09:25:24+01:00</time>
      </trkpt>
      <trkpt lat="43.7647" lon="3.55437">
        <ele>521</ele>
        <time>2021-03-11T09:25:29+01:00</time>
      </trkpt>
      <trkpt lat="43.7649" lon="3.55437">
        <ele>528</ele>
        <time>2021-03-11T09:25:34+01:00</time>
      </trkpt>
      <trkpt lat="43.76512" lon="3.55441">
        <ele>533</ele>
        <time>2021-03-11T09:25:39+01:00</time>
      </trkpt>
      <trkpt lat="43.76529" lon="3.55439">
        <ele>538</ele>
        <time>2021-03-11T09:25:44+01:00</time>
      </trkpt>
      <trkpt lat="43.76555" lon="3.55466">
        <ele>537</ele>
        <time>2021-03-11T09:25:49+01:00</time>
      </trkpt>
      <trkpt lat="43.76575" lon="3.55476">
        <ele>539</ele>
        <time>2021-03-11T09:25:54+01:00</time>
      </trkpt>
      <trkpt lat="43.76592" lon="3.55467">
        <ele>548</ele>
        <time>2021-03-11T09:25:59+01:00</time>
      </trkpt>
      <trkpt lat="43.76603" lon="3.55489">
        <ele>546</ele>
        <time>2021-03-11T09:26:04+01:00</time>
      </trkpt>
      <trkpt lat="43.76601" lon="3.55543">
        <ele>545</ele>
        <time>2021-03-11T09:26:09+01:00</time>
      </trkpt>
      <trkpt lat="43.76612" lon="3.55579">
        <ele>553</ele>
        <time>2021-03-11T09:26:14+01:00</time>
      </trkpt>
      <trkpt lat="43.76615" lon="3.55623">
        <ele>559</ele>
        <time>2021-03-11T09:26:19+01:00</time>
      </trkpt>
      <trkpt lat="43.76629" lon="3.55659">
        <ele>568</ele>
        <time>2021-03-11T09:26:24+01:00</time>
      </trkpt>
      <trkpt lat="43.76636" lon="3.55676">
        <ele>571</ele>
        <time>2021-03-11T09:26:29+01:00</time>
      </trkpt>
      <trkpt lat="43.76662" lon="3.55712">
        <ele>577</ele>
        <time>2021-03-11T09:26:34+01:00</time>
      </trkpt>
      <trkpt lat="43.76662" lon="3.55663">
        <ele>580</ele>
        <time>2021-03-11T09:26:39+01:00</time>
      </trkpt>
      <trkpt lat="43.76659" lon="3.55635">
        <ele>579</ele>
        <time>2021-03-11T09:26:44+01:00</time>
      </trkpt>
      <trkpt lat="43.76668" lon="3.55588">
        <ele>584</ele>
        <time>2021-03-11T09:26:49+01:00</time>
      </trkpt>
      <trkpt lat="43.76675" lon="3.55575">
        <ele>586</ele>
        <time>2021-03-11T09:26:54+01:00</time>
      </trkpt>
      <trkpt lat="43.76704" lon="3.55536">
        <ele>594</ele>
        <time>2021-03-11T09:26:59+01:00</time>
      </trkpt>
      <trkpt lat="43.76682" lon="3.55597">
        <ele>589</ele>
        <time>2021-03-11T09:27:04+01:00</time>
      </trkpt>
      <trkpt lat="43.76679" lon="3.55639">
        <ele>587</ele>
        <time>2021-03-11T09:27:09+01:00</time>
      </trkpt>
      <trkpt lat="43.76692" lon="3.55678">
        <ele>590</ele>
        <time>2021-03-11T09:27:14+01:00</time>
      </trkpt>
      <trkpt lat="43.76723" lon="3.55686">
        <ele>601</ele>
        <time>2021-03-11T09:27:19+01:00</time>
      </trkpt>
      <trkpt lat="43.76752" lon="3.55695">
        <ele>610</ele>
        <time>2021-03-11T09:27:24+01:00</time>
      </trkpt>
      <trkpt lat="43.76774" lon="3.5572">
        <ele>613</ele>
        <time>2021-03-11T09:27:29+01:00</time>
      </trkpt>
      <trkpt lat="43.76782" lon="3.55746">
        <ele>613</ele>
        <time>2021-03-11T09:27:34+01:00</time>
      </trkpt>
      <trkpt lat="43.76775" lon="3.55765">
        <ele>612</ele>
        <time>2021-03-11T09:27:39+01:00</time>
      </trkpt>
      <trkpt lat="43.76775" lon="3.55785">
        <ele>615</ele>
        <time>2021-03-11T09:27:44+01:00</time>
      </trkpt>
      <trkpt lat="43.76758" lon="3.55815">
        <ele>614</ele>
        <time>2021-03-11T09:27:49+01:00</time>
      </trkpt>
      <trkpt lat="43.76743" lon="3.5585">
        <ele>617</ele>
        <time>2021-03-11T09:27:54+01:00</time>
      </trkpt>
      <trkpt lat="43.76716" lon="3.55877">
        <ele>618</ele>
        <time>2021-03-11T09:27:59+01:00</time>
      </trkpt>
      <trkpt lat="43.76684" lon="3.5592">
        <ele>622</ele>
        <time>2021-03-11T09:28:04+01:00</time>
      </trkpt>
      <trkpt lat="43.76655" lon="3.55949">
        <ele>620</ele>
        <time>2021-03-11T09:28:09+01:00</time>
      </trkpt>
      <trkpt lat="43.7664" lon="3.55979">
        <ele>620</ele>
        <time>2021-03-11T09:28:14+01:00</time>
      </trkpt>
      <trkpt lat="43.76622" lon="3.56016">
        <ele>616</ele>
        <time>2021-03-11T09:28:19+01:00</time>
      </trkpt>
      <trkpt lat="43.76612" lon="3.56091">
        <ele>613</ele>
        <time>2021-03-11T09:28:24+01:00</time>
      </trkpt>
      <trkpt lat="43.76617" lon="3.56134">
        <ele>619</ele>
        <time>2021-03-11T09:28:29+01:00</time>
      </trkpt>
      <trkpt lat="43.76628" lon="3.56165">
        <ele>628</ele>
        <time>2021-03-11T09:28:34+01:00</time>
      </trkpt>
      <trkpt lat="43.76606" lon="3.5624">
        <ele>630</ele>
        <time>2021-03-11T09:28:39+01:00</time>
      </trkpt>
      <trkpt lat="43.76628" lon="3.56165">
        <ele>627</ele>
        <time>2021-03-11T09:28:44+01:00</time>
      </trkpt>
      <trkpt lat="43.76617" lon="3.56133">
        <ele>618</ele>
        <time>2021-03-11T09:28:49+01:00</time>
      </trkpt>
      <trkpt lat="43.76611" lon="3.56091">
        <ele>613</ele>
        <time>2021-03-11T09:28:54+01:00</time>
      </trkpt>
      <trkpt lat="43.7661" lon="3.56094">
        <ele>612</ele>
        <time>2021-03-11T09:28:59+01:00</time>
      </trkpt>
      <trkpt lat="43.76623" lon="3.56017">
        <ele>616</ele>
        <time>2021-03-11T09:29:04+01:00</time>
      </trkpt>
      <trkpt lat="43.7664" lon="3.55981">
        <ele>621</ele>
        <time>2021-03-11T09:29:09+01:00</time>
      </trkpt>
      <trkpt lat="43.76655" lon="3.5595">
        <ele>621</ele>
        <time>2021-03-11T09:29:14+01:00</time>
      </trkpt>
      <trkpt lat="43.76674" lon="3.55959">
        <ele>629</ele>
        <time>2021-03-11T09:29:19+01:00</time>
      </trkpt>
      <trkpt lat="43.76699" lon="3.55961">
        <ele>634</ele>
        <time>2021-03-11T09:29:24+01:00</time>
      </trkpt>
      <trkpt lat="43.7672" lon="3.55942">
        <ele>634</ele>
        <time>2021-03-11T09:29:29+01:00</time>
      </trkpt>
      <trkpt lat="43.76746" lon="3.55906">
        <ele>632</ele>
        <time>2021-03-11T09:29:34+01:00</time>
      </trkpt>
      <trkpt lat="43.76779" lon="3.55885">
        <ele>633</ele>
        <time>2021-03-11T09:29:39+01:00</time>
      </trkpt>
      <trkpt lat="43.76802" lon="3.55869">
        <ele>635</ele>
        <time>2021-03-11T09:29:44+01:00</time>
      </trkpt>
      <trkpt lat="43.76817" lon="3.55853">
        <ele>637</ele>
        <time>2021-03-11T09:29:49+01:00</time>
      </trkpt>
      <trkpt lat="43.76834" lon="3.55809">
        <ele>636</ele>
        <time>2021-03-11T09:29:54+01:00</time>
      </trkpt>
      <trkpt lat="43.76836" lon="3.558">
        <ele>636</ele>
        <time>2021-03-11T09:29:59+01:00</time>
      </trkpt>
      <trkpt lat="43.76852" lon="3.55805">
        <ele>637</ele>
        <time>2021-03-11T09:30:04+01:00</time>
      </trkpt>
      <trkpt lat="43.76869" lon="3.55818">
        <ele>640</ele>
        <time>2021-03-11T09:30:09+01:00</time>
      </trkpt>
      <trkpt lat="43.76869" lon="3.55867">
        <ele>641</ele>
        <time>2021-03-11T09:30:14+01:00</time>
      </trkpt>
      <trkpt lat="43.76842" lon="3.55922">
        <ele>645</ele>
        <time>2021-03-11T09:30:19+01:00</time>
      </trkpt>
      <trkpt lat="43.76826" lon="3.55965">
        <ele>644</ele>
        <time>2021-03-11T09:30:24+01:00</time>
      </trkpt>
      <trkpt lat="43.76835" lon="3.56023">
        <ele>646</ele>
        <time>2021-03-11T09:30:29+01:00</time>
      </trkpt>
      <trkpt lat="43.76841" lon="3.56047">
        <ele>649</ele>
        <time>2021-03-11T09:30:34+01:00</time>
      </trkpt>
      <trkpt lat="43.76831" lon="3.56069">
        <ele>653</ele>
        <time>2021-03-11T09:30:39+01:00</time>
      </trkpt>
      <trkpt lat="43.7683" lon="3.56083">
        <ele>655</ele>
        <time>2021-03-11T09:30:44+01:00</time>
      </trkpt>
      <trkpt lat="43.7681" lon="3.56093">
        <ele>658</ele>
        <time>2021-03-11T09:30:49+01:00</time>
      </trkpt>
      <trkpt lat="43.76791" lon="3.56112">
        <ele>663</ele>
        <time>2021-03-11T09:30:54+01:00</time>
      </trkpt>
      <trkpt lat="43.76775" lon="3.56124">
        <ele>666</ele>
        <time>2021-03-11T09:30:59+01:00</time>
      </trkpt>
      <trkpt lat="43.7677" lon="3.56155">
        <ele>672</ele>
        <time>2021-03-11T09:31:04+01:00</time>
      </trkpt>
      <trkpt lat="43.76774" lon="3.56172">
        <ele>675</ele>
        <time>2021-03-11T09:31:09+01:00</time>
      </trkpt>
      <trkpt lat="43.76774" lon="3.56172">
        <ele>675</ele>
        <time>2021-03-11T09:31:14+01:00</time>
      </trkpt>
      <trkpt lat="43.76771" lon="3.56186">
        <ele>678</ele>
        <time>2021-03-11T09:31:19+01:00</time>
      </trkpt>
      <trkpt lat="43.76765" lon="3.56216">
        <ele>684</ele>
        <time>2021-03-11T09:31:24+01:00</time>
      </trkpt>
      <trkpt lat="43.76774" lon="3.56259">
        <ele>691</ele>
        <time>2021-03-11T09:31:29+01:00</time>
      </trkpt>
      <trkpt lat="43.76775" lon="3.56258">
        <ele>691</ele>
        <time>2021-03-11T09:31:34+01:00</time>
      </trkpt>
      <trkpt lat="43.76785" lon="3.56277">
        <ele>690</ele>
        <time>2021-03-11T09:31:39+01:00</time>
      </trkpt>
      <trkpt lat="43.76798" lon="3.56307">
        <ele>690</ele>
        <time>2021-03-11T09:31:44+01:00</time>
      </trkpt>
      <trkpt lat="43.76816" lon="3.56276">
        <ele>689</ele>
        <time>2021-03-11T09:31:49+01:00</time>
      </trkpt>
      <trkpt lat="43.76798" lon="3.56306">
        <ele>690</ele>
        <time>2021-03-11T09:31:54+01:00</time>
      </trkpt>
      <trkpt lat="43.76782" lon="3.56277">
        <ele>691</ele>
        <time>2021-03-11T09:31:59+01:00</time>
      </trkpt>
      <trkpt lat="43.76769" lon="3.56239">
        <ele>688</ele>
        <time>2021-03-11T09:32:04+01:00</time>
      </trkpt>
      <trkpt lat="43.76765" lon="3.56217">
        <ele>684</ele>
        <time>2021-03-11T09:32:09+01:00</time>
      </trkpt>
      <trkpt lat="43.76775" lon="3.56173">
        <ele>675</ele>
        <time>2021-03-11T09:32:14+01:00</time>
      </trkpt>
      <trkpt lat="43.7677" lon="3.56156">
        <ele>672</ele>
        <time>2021-03-11T09:32:19+01:00</time>
      </trkpt>
      <trkpt lat="43.76777" lon="3.5612">
        <ele>665</ele>
        <time>2021-03-11T09:32:24+01:00</time>
      </trkpt>
      <trkpt lat="43.76789" lon="3.56113">
        <ele>663</ele>
        <time>2021-03-11T09:32:29+01:00</time>
      </trkpt>
      <trkpt lat="43.76812" lon="3.5609">
        <ele>657</ele>
        <time>2021-03-11T09:32:34+01:00</time>
      </trkpt>
      <trkpt lat="43.76827" lon="3.56082">
        <ele>655</ele>
        <time>2021-03-11T09:32:39+01:00</time>
      </trkpt>
      <trkpt lat="43.76831" lon="3.56069">
        <ele>653</ele>
        <time>2021-03-11T09:32:44+01:00</time>
      </trkpt>
      <trkpt lat="43.7684" lon="3.56049">
        <ele>649</ele>
        <time>2021-03-11T09:32:49+01:00</time>
      </trkpt>
      <trkpt lat="43.76834" lon="3.56019">
        <ele>646</ele>
        <time>2021-03-11T09:32:54+01:00</time>
      </trkpt>
      <trkpt lat="43.7687" lon="3.56047">
        <ele>644</ele>
        <time>2021-03-11T09:32:59+01:00</time>
      </trkpt>
      <trkpt lat="43.76876" lon="3.56098">
        <ele>650</ele>
        <time>2021-03-11T09:33:04+01:00</time>
      </trkpt>
      <trkpt lat="43.7689" lon="3.56116">
        <ele>650</ele>
        <time>2021-03-11T09:33:09+01:00</time>
      </trkpt>
      <trkpt lat="43.76919" lon="3.56131">
        <ele>645</ele>
        <time>2021-03-11T09:33:14+01:00</time>
      </trkpt>
      <trkpt lat="43.76926" lon="3.5615">
        <ele>644</ele>
        <time>2021-03-11T09:33:19+01:00</time>
      </trkpt>
      <trkpt lat="43.76929" lon="3.56167">
        <ele>645</ele>
        <time>2021-03-11T09:33:24+01:00</time>
      </trkpt>
      <trkpt lat="43.76913" lon="3.5624">
        <ele>654</ele>
        <time>2021-03-11T09:33:29+01:00</time>
      </trkpt>
      <trkpt lat="43.76933" lon="3.56298">
        <ele>649</ele>
        <time>2021-03-11T09:33:34+01:00</time>
      </trkpt>
      <trkpt lat="43.76951" lon="3.56328">
        <ele>645</ele>
        <time>2021-03-11T09:33:39+01:00</time>
      </trkpt>
      <trkpt lat="43.76973" lon="3.56358">
        <ele>641</ele>
        <time>2021-03-11T09:33:44+01:00</time>
      </trkpt>
      <trkpt lat="43.76989" lon="3.56395">
        <ele>639</ele>
        <time>2021-03-11T09:33:49+01:00</time>
      </trkpt>
      <trkpt lat="43.77012" lon="3.56478">
        <ele>634</ele>
        <time>2021-03-11T09:33:54+01:00</time>
      </trkpt>
      <trkpt lat="43.77041" lon="3.56554">
        <ele>629</ele>
        <time>2021-03-11T09:33:59+01:00</time>
      </trkpt>
      <trkpt lat="43.77062" lon="3.56628">
        <ele>625</ele>
        <time>2021-03-11T09:34:04+01:00</time>
      </trkpt>
      <trkpt lat="43.77085" lon="3.56691">
        <ele>623</ele>
        <time>2021-03-11T09:34:09+01:00</time>
      </trkpt>
      <trkpt lat="43.77098" lon="3.56698">
        <ele>619</ele>
        <time>2021-03-11T09:34:14+01:00</time>
      </trkpt>
      <trkpt lat="43.77125" lon="3.56665">
        <ele>608</ele>
        <time>2021-03-11T09:34:19+01:00</time>
      </trkpt>
      <trkpt lat="43.77129" lon="3.56665">
        <ele>607</ele>
        <time>2021-03-11T09:34:24+01:00</time>
      </trkpt>
      <trkpt lat="43.77149" lon="3.56686">
        <ele>602</ele>
        <time>2021-03-11T09:34:29+01:00</time>
      </trkpt>
      <trkpt lat="43.77179" lon="3.56738">
        <ele>596</ele>
        <time>2021-03-11T09:34:34+01:00</time>
      </trkpt>
      <trkpt lat="43.772" lon="3.56757">
        <ele>592</ele>
        <time>2021-03-11T09:34:39+01:00</time>
      </trkpt>
      <trkpt lat="43.77214" lon="3.56781">
        <ele>591</ele>
        <time>2021-03-11T09:34:44+01:00</time>
      </trkpt>
      <trkpt lat="43.77242" lon="3.56804">
        <ele>586</ele>
        <time>2021-03-11T09:34:49+01:00</time>
      </trkpt>
      <trkpt lat="43.77263" lon="3.56835">
        <ele>583</ele>
        <time>2021-03-11T09:34:54+01:00</time>
      </trkpt>
      <trkpt lat="43.77283" lon="3.56864">
        <ele>580</ele>
        <time>2021-03-11T09:34:59+01:00</time>
      </trkpt>
      <trkpt lat="43.77301" lon="3.56893">
        <ele>576</ele>
        <time>2021-03-11T09:35:04+01:00</time>
      </trkpt>
      <trkpt lat="43.77327" lon="3.56935">
        <ele>567</ele>
        <time>2021-03-11T09:35:09+01:00</time>
      </trkpt>
      <trkpt lat="43.77354" lon="3.56988">
        <ele>560</ele>
        <time>2021-03-11T09:35:14+01:00</time>
      </trkpt>
      <trkpt lat="43.77393" lon="3.5706">
        <ele>554</ele>
        <time>2021-03-11T09:35:19+01:00</time>
      </trkpt>
      <trkpt lat="43.77409" lon="3.57099">
        <ele>552</ele>
        <time>2021-03-11T09:35:24+01:00</time>
      </trkpt>
      <trkpt lat="43.77429" lon="3.5712">
        <ele>549</ele>
        <time>2021-03-11T09:35:29+01:00</time>
      </trkpt>
      <trkpt lat="43.77462" lon="3.57115">
        <ele>542</ele>
        <time>2021-03-11T09:35:34+01:00</time>
      </trkpt>
      <trkpt lat="43.7748" lon="3.57201">
        <ele>536</ele>
        <time>2021-03-11T09:35:39+01:00</time>
      </trkpt>
      <trkpt lat="43.77483" lon="3.5723">
        <ele>534</ele>
        <time>2021-03-11T09:35:44+01:00</time>
      </trkpt>
      <trkpt lat="43.77479" lon="3.57255">
        <ele>534</ele>
        <time>2021-03-11T09:35:49+01:00</time>
      </trkpt>
      <trkpt lat="43.77468" lon="3.57271">
        <ele>535</ele>
        <time>2021-03-11T09:35:54+01:00</time>
      </trkpt>
      <trkpt lat="43.77448" lon="3.57274">
        <ele>539</ele>
        <time>2021-03-11T09:35:59+01:00</time>
      </trkpt>
      <trkpt lat="43.7741" lon="3.57283">
        <ele>544</ele>
        <time>2021-03-11T09:36:04+01:00</time>
      </trkpt>
      <trkpt lat="43.77385" lon="3.5727">
        <ele>542</ele>
        <time>2021-03-11T09:36:09+01:00</time>
      </trkpt>
      <trkpt lat="43.77361" lon="3.5727">
        <ele>539</ele>
        <time>2021-03-11T09:36:14+01:00</time>
      </trkpt>
      <trkpt lat="43.77324" lon="3.57276">
        <ele>531</ele>
        <time>2021-03-11T09:36:19+01:00</time>
      </trkpt>
      <trkpt lat="43.77291" lon="3.57274">
        <ele>520</ele>
        <time>2021-03-11T09:36:24+01:00</time>
      </trkpt>
      <trkpt lat="43.77276" lon="3.57268">
        <ele>517</ele>
        <time>2021-03-11T09:36:29+01:00</time>
      </trkpt>
      <trkpt lat="43.77277" lon="3.57255">
        <ele>523</ele>
        <time>2021-03-11T09:36:34+01:00</time>
      </trkpt>
      <trkpt lat="43.77284" lon="3.57235">
        <ele>530</ele>
        <time>2021-03-11T09:36:39+01:00</time>
      </trkpt>
      <trkpt lat="43.77273" lon="3.57212">
        <ele>535</ele>
        <time>2021-03-11T09:36:44+01:00</time>
      </trkpt>
      <trkpt lat="43.77234" lon="3.57197">
        <ele>532</ele>
        <time>2021-03-11T09:36:49+01:00</time>
      </trkpt>
      <trkpt lat="43.77172" lon="3.57198">
        <ele>523</ele>
        <time>2021-03-11T09:36:54+01:00</time>
      </trkpt>
      <trkpt lat="43.77147" lon="3.57196">
        <ele>523</ele>
        <time>2021-03-11T09:36:59+01:00</time>
      </trkpt>
      <trkpt lat="43.77132" lon="3.57203">
        <ele>520</ele>
        <time>2021-03-11T09:37:04+01:00</time>
      </trkpt>
      <trkpt lat="43.7711" lon="3.57208">
        <ele>517</ele>
        <time>2021-03-11T09:37:09+01:00</time>
      </trkpt>
      <trkpt lat="43.7705" lon="3.57214">
        <ele>510</ele>
        <time>2021-03-11T09:37:14+01:00</time>
      </trkpt>
      <trkpt lat="43.77037" lon="3.57219">
        <ele>506</ele>
        <time>2021-03-11T09:37:19+01:00</time>
      </trkpt>
      <trkpt lat="43.77019" lon="3.57213">
        <ele>506</ele>
        <time>2021-03-11T09:37:24+01:00</time>
      </trkpt>
      <trkpt lat="43.76988" lon="3.57203">
        <ele>505</ele>
        <time>2021-03-11T09:37:29+01:00</time>
      </trkpt>
      <trkpt lat="43.76936" lon="3.57158">
        <ele>508</ele>
        <time>2021-03-11T09:37:34+01:00</time>
      </trkpt>
      <trkpt lat="43.76878" lon="3.57094">
        <ele>511</ele>
        <time>2021-03-11T09:37:39+01:00</time>
      </trkpt>
      <trkpt lat="43.76864" lon="3.57075">
        <ele>512</ele>
        <time>2021-03-11T09:37:44+01:00</time>
      </trkpt>
      <trkpt lat="43.76844" lon="3.57045">
        <ele>515</ele>
        <time>2021-03-11T09:37:49+01:00</time>
      </trkpt>
      <trkpt lat="43.76786" lon="3.57036">
        <ele>503</ele>
        <time>2021-03-11T09:37:54+01:00</time>
      </trkpt>
      <trkpt lat="43.76758" lon="3.57012">
        <ele>502</ele>
        <time>2021-03-11T09:37:59+01:00</time>
      </trkpt>
      <trkpt lat="43.76724" lon="3.56964">
        <ele>502</ele>
        <time>2021-03-11T09:38:04+01:00</time>
      </trkpt>
      <trkpt lat="43.76716" lon="3.56979">
        <ele>496</ele>
        <time>2021-03-11T09:38:09+01:00</time>
      </trkpt>
      <trkpt lat="43.76713" lon="3.56993">
        <ele>491</ele>
        <time>2021-03-11T09:38:14+01:00</time>
      </trkpt>
      <trkpt lat="43.76715" lon="3.57023">
        <ele>486</ele>
        <time>2021-03-11T09:38:19+01:00</time>
      </trkpt>
      <trkpt lat="43.76721" lon="3.57041">
        <ele>485</ele>
        <time>2021-03-11T09:38:24+01:00</time>
      </trkpt>
      <trkpt lat="43.76728" lon="3.57061">
        <ele>484</ele>
        <time>2021-03-11T09:38:29+01:00</time>
      </trkpt>
      <trkpt lat="43.76714" lon="3.57063">
        <ele>479</ele>
        <time>2021-03-11T09:38:34+01:00</time>
      </trkpt>
      <trkpt lat="43.76699" lon="3.57055">
        <ele>476</ele>
        <time>2021-03-11T09:38:39+01:00</time>
      </trkpt>
      <trkpt lat="43.76687" lon="3.57036">
        <ele>475</ele>
        <time>2021-03-11T09:38:44+01:00</time>
      </trkpt>
      <trkpt lat="43.76678" lon="3.56984">
        <ele>481</ele>
        <time>2021-03-11T09:38:49+01:00</time>
      </trkpt>
      <trkpt lat="43.76664" lon="3.56976">
        <ele>479</ele>
        <time>2021-03-11T09:38:54+01:00</time>
      </trkpt>
      <trkpt lat="43.76644" lon="3.56974">
        <ele>474</ele>
        <time>2021-03-11T09:38:59+01:00</time>
      </trkpt>
      <trkpt lat="43.76651" lon="3.56985">
        <ele>473</ele>
        <time>2021-03-11T09:39:04+01:00</time>
      </trkpt>
      <trkpt lat="43.76647" lon="3.56993">
        <ele>469</ele>
        <time>2021-03-11T09:39:09+01:00</time>
      </trkpt>
      <trkpt lat="43.76639" lon="3.56999">
        <ele>465</ele>
        <time>2021-03-11T09:39:14+01:00</time>
      </trkpt>
      <trkpt lat="43.7663" lon="3.57004">
        <ele>462</ele>
        <time>2021-03-11T09:39:19+01:00</time>
      </trkpt>
      <trkpt lat="43.76616" lon="3.57025">
        <ele>454</ele>
        <time>2021-03-11T09:39:24+01:00</time>
      </trkpt>
      <trkpt lat="43.76602" lon="3.57032">
        <ele>448</ele>
        <time>2021-03-11T09:39:29+01:00</time>
      </trkpt>
      <trkpt lat="43.76585" lon="3.57034">
        <ele>442</ele>
        <time>2021-03-11T09:39:34+01:00</time>
      </trkpt>
      <trkpt lat="43.76573" lon="3.57038">
        <ele>438</ele>
        <time>2021-03-11T09:39:39+01:00</time>
      </trkpt>
      <trkpt lat="43.76561" lon="3.57032">
        <ele>437</ele>
        <time>2021-03-11T09:39:44+01:00</time>
      </trkpt>
      <trkpt lat="43.76542" lon="3.5701">
        <ele>438</ele>
        <time>2021-03-11T09:39:49+01:00</time>
      </trkpt>
      <trkpt lat="43.76549" lon="3.57029">
        <ele>434</ele>
        <time>2021-03-11T09:39:54+01:00</time>
      </trkpt>
      <trkpt lat="43.76532" lon="3.57025">
        <ele>431</ele>
        <time>2021-03-11T09:39:59+01:00</time>
      </trkpt>
      <trkpt lat="43.76538" lon="3.57042">
        <ele>428</ele>
        <time>2021-03-11T09:40:04+01:00</time>
      </trkpt>
      <trkpt lat="43.7652" lon="3.57034">
        <ele>426</ele>
        <time>2021-03-11T09:40:09+01:00</time>
      </trkpt>
      <trkpt lat="43.76502" lon="3.57038">
        <ele>420</ele>
        <time>2021-03-11T09:40:14+01:00</time>
      </trkpt>
      <trkpt lat="43.76461" lon="3.57066">
        <ele>401</ele>
        <time>2021-03-11T09:40:19+01:00</time>
      </trkpt>
      <trkpt lat="43.76437" lon="3.57062">
        <ele>398</ele>
        <time>2021-03-11T09:40:24+01:00</time>
      </trkpt>
      <trkpt lat="43.76417" lon="3.57064">
        <ele>393</ele>
        <time>2021-03-11T09:40:29+01:00</time>
      </trkpt>
      <trkpt lat="43.76403" lon="3.57055">
        <ele>392</ele>
        <time>2021-03-11T09:40:34+01:00</time>
      </trkpt>
      <trkpt lat="43.76368" lon="3.57053">
        <ele>382</ele>
        <time>2021-03-11T09:40:39+01:00</time>
      </trkpt>
      <trkpt lat="43.76355" lon="3.5706">
        <ele>378</ele>
        <time>2021-03-11T09:40:44+01:00</time>
      </trkpt>
      <trkpt lat="43.76337" lon="3.57055">
        <ele>374</ele>
        <time>2021-03-11T09:40:49+01:00</time>
      </trkpt>
      <trkpt lat="43.76327" lon="3.57047">
        <ele>372</ele>
        <time>2021-03-11T09:40:54+01:00</time>
      </trkpt>
      <trkpt lat="43.76331" lon="3.57032">
        <ele>374</ele>
        <time>2021-03-11T09:40:59+01:00</time>
      </trkpt>
      <trkpt lat="43.76324" lon="3.57012">
        <ele>373</ele>
        <time>2021-03-11T09:41:04+01:00</time>
      </trkpt>
      <trkpt lat="43.7632" lon="3.57007">
        <ele>371</ele>
        <time>2021-03-11T09:41:09+01:00</time>
      </trkpt>
      <trkpt lat="43.7631" lon="3.57014">
        <ele>368</ele>
        <time>2021-03-11T09:41:14+01:00</time>
      </trkpt>
      <trkpt lat="43.76306" lon="3.57032">
        <ele>365</ele>
        <time>2021-03-11T09:41:19+01:00</time>
      </trkpt>
      <trkpt lat="43.76293" lon="3.57077">
        <ele>360</ele>
        <time>2021-03-11T09:41:24+01:00</time>
      </trkpt>
      <trkpt lat="43.7629" lon="3.57096">
        <ele>357</ele>
        <time>2021-03-11T09:41:29+01:00</time>
      </trkpt>
      <trkpt lat="43.76291" lon="3.57116">
        <ele>354</ele>
        <time>2021-03-11T09:41:34+01:00</time>
      </trkpt>
      <trkpt lat="43.76296" lon="3.57136">
        <ele>351</ele>
        <time>2021-03-11T09:41:39+01:00</time>
      </trkpt>
      <trkpt lat="43.7629" lon="3.57141">
        <ele>349</ele>
        <time>2021-03-11T09:41:44+01:00</time>
      </trkpt>
      <trkpt lat="43.76282" lon="3.57142">
        <ele>348</ele>
        <time>2021-03-11T09:41:49+01:00</time>
      </trkpt>
      <trkpt lat="43.76267" lon="3.57129">
        <ele>346</ele>
        <time>2021-03-11T09:41:54+01:00</time>
      </trkpt>
      <trkpt lat="43.76254" lon="3.57127">
        <ele>344</ele>
        <time>2021-03-11T09:41:59+01:00</time>
      </trkpt>
      <trkpt lat="43.7625" lon="3.57139">
        <ele>342</ele>
        <time>2021-03-11T09:42:04+01:00</time>
      </trkpt>
      <trkpt lat="43.76239" lon="3.57146">
        <ele>340</ele>
        <time>2021-03-11T09:42:09+01:00</time>
      </trkpt>
      <trkpt lat="43.76222" lon="3.5715">
        <ele>339</ele>
        <time>2021-03-11T09:42:14+01:00</time>
      </trkpt>
      <trkpt lat="43.76193" lon="3.57145">
        <ele>336</ele>
        <time>2021-03-11T09:42:19+01:00</time>
      </trkpt>
      <trkpt lat="43.76126" lon="3.57167">
        <ele>332</ele>
        <time>2021-03-11T09:42:24+01:00</time>
      </trkpt>
      <trkpt lat="43.761" lon="3.57173">
        <ele>330</ele>
        <time>2021-03-11T09:42:29+01:00</time>
      </trkpt>
      <trkpt lat="43.76067" lon="3.57165">
        <ele>328</ele>
        <time>2021-03-11T09:42:34+01:00</time>
      </trkpt>
      <trkpt lat="43.76044" lon="3.57152">
        <ele>326</ele>
        <time>2021-03-11T09:42:39+01:00</time>
      </trkpt>
      <trkpt lat="43.76028" lon="3.57132">
        <ele>325</ele>
        <time>2021-03-11T09:42:44+01:00</time>
      </trkpt>
      <trkpt lat="43.76002" lon="3.5712">
        <ele>324</ele>
        <time>2021-03-11T09:42:49+01:00</time>
      </trkpt>
      <trkpt lat="43.75971" lon="3.57109">
        <ele>321</ele>
        <time>2021-03-11T09:42:54+01:00</time>
      </trkpt>
      <trkpt lat="43.75942" lon="3.57106">
        <ele>318</ele>
        <time>2021-03-11T09:42:59+01:00</time>
      </trkpt>
      <trkpt lat="43.75907" lon="3.57107">
        <ele>314</ele>
        <time>2021-03-11T09:43:04+01:00</time>
      </trkpt>
      <trkpt lat="43.75897" lon="3.57112">
        <ele>313</ele>
        <time>2021-03-11T09:43:09+01:00</time>
      </trkpt>
      <trkpt lat="43.75886" lon="3.57109">
        <ele>311</ele>
        <time>2021-03-11T09:43:14+01:00</time>
      </trkpt>
      <trkpt lat="43.7587" lon="3.57109">
        <ele>309</ele>
        <time>2021-03-11T09:43:19+01:00</time>
      </trkpt>
      <trkpt lat="43.75849" lon="3.57083">
        <ele>308</ele>
        <time>2021-03-11T09:43:24+01:00</time>
      </trkpt>
      <trkpt lat="43.75849" lon="3.57102">
        <ele>307</ele>
        <time>2021-03-11T09:43:29+01:00</time>
      </trkpt>
      <trkpt lat="43.75841" lon="3.57114">
        <ele>305</ele>
        <time>2021-03-11T09:43:34+01:00</time>
      </trkpt>
      <trkpt lat="43.75835" lon="3.5713">
        <ele>303</ele>
        <time>2021-03-11T09:43:39+01:00</time>
      </trkpt>
      <trkpt lat="43.7581" lon="3.57102">
        <ele>303</ele>
        <time>2021-03-11T09:43:44+01:00</time>
      </trkpt>
      <trkpt lat="43.75793" lon="3.57126">
        <ele>301</ele>
        <time>2021-03-11T09:43:49+01:00</time>
      </trkpt>
      <trkpt lat="43.7574" lon="3.57194">
        <ele>295</ele>
        <time>2021-03-11T09:43:54+01:00</time>
      </trkpt>
      <trkpt lat="43.75715" lon="3.57205">
        <ele>293</ele>
        <time>2021-03-11T09:43:59+01:00</time>
      </trkpt>
      <trkpt lat="43.75678" lon="3.57223">
        <ele>291</ele>
        <time>2021-03-11T09:44:04+01:00</time>
      </trkpt>
      <trkpt lat="43.75667" lon="3.57244">
        <ele>289</ele>
        <time>2021-03-11T09:44:09+01:00</time>
      </trkpt>
      <trkpt lat="43.7564" lon="3.57253">
        <ele>289</ele>
        <time>2021-03-11T09:44:14+01:00</time>
      </trkpt>
      <trkpt lat="43.75619" lon="3.57287">
        <ele>288</ele>
        <time>2021-03-11T09:44:19+01:00</time>
      </trkpt>
      <trkpt lat="43.75582" lon="3.57283">
        <ele>288</ele>
        <time>2021-03-11T09:44:24+01:00</time>
      </trkpt>
      <trkpt lat="43.75553" lon="3.57285">
        <ele>287</ele>
        <time>2021-03-11T09:44:29+01:00</time>
      </trkpt>
      <trkpt lat="43.75514" lon="3.573">
        <ele>285</ele>
        <time>2021-03-11T09:44:34+01:00</time>
      </trkpt>
      <trkpt lat="43.75483" lon="3.57322">
        <ele>284</ele>
        <time>2021-03-11T09:44:39+01:00</time>
      </trkpt>
      <trkpt lat="43.7545" lon="3.57311">
        <ele>283</ele>
        <time>2021-03-11T09:44:44+01:00</time>
      </trkpt>
      <trkpt lat="43.75415" lon="3.57326">
        <ele>281</ele>
        <time>2021-03-11T09:44:49+01:00</time>
      </trkpt>
      <trkpt lat="43.75408" lon="3.57326">
        <ele>281</ele>
        <time>2021-03-11T09:44:54+01:00</time>
      </trkpt>
      <trkpt lat="43.75399" lon="3.57321">
        <ele>280</ele>
        <time>2021-03-11T09:44:59+01:00</time>
      </trkpt>
      <trkpt lat="43.75382" lon="3.57306">
        <ele>280</ele>
        <time>2021-03-11T09:45:04+01:00</time>
      </trkpt>
      <trkpt lat="43.75356" lon="3.57296">
        <ele>279</ele>
        <time>2021-03-11T09:45:09+01:00</time>
      </trkpt>
      <trkpt lat="43.75329" lon="3.57306">
        <ele>277</ele>
        <time>2021-03-11T09:45:14+01:00</time>
      </trkpt>
      <trkpt lat="43.75305" lon="3.573">
        <ele>275</ele>
        <time>2021-03-11T09:45:19+01:00</time>
      </trkpt>
      <trkpt lat="43.7527" lon="3.57276">
        <ele>271</ele>
        <time>2021-03-11T09:45:24+01:00</time>
      </trkpt>
      <trkpt lat="43.75245" lon="3.5726">
        <ele>267</ele>
        <time>2021-03-11T09:45:29+01:00</time>
      </trkpt>
      <trkpt lat="43.75224" lon="3.57231">
        <ele>265</ele>
        <time>2021-03-11T09:45:34+01:00</time>
      </trkpt>
      <trkpt lat="43.7521" lon="3.57212">
        <ele>263</ele>
        <time>2021-03-11T09:45:39+01:00</time>
      </trkpt>
      <trkpt lat="43.75202" lon="3.57204">
        <ele>261</ele>
        <time>2021-03-11T09:45:44+01:00</time>
      </trkpt>
      <trkpt lat="43.7519" lon="3.57199">
        <ele>258</ele>
        <time>2021-03-11T09:45:49+01:00</time>
      </trkpt>
      <trkpt lat="43.75155" lon="3.57174">
        <ele>247</ele>
        <time>2021-03-11T09:45:54+01:00</time>
      </trkpt>
      <trkpt lat="43.75136" lon="3.57163">
        <ele>241</ele>
        <time>2021-03-11T09:45:59+01:00</time>
      </trkpt>
      <trkpt lat="43.75133" lon="3.57143">
        <ele>241</ele>
        <time>2021-03-11T09:46:04+01:00</time>
      </trkpt>
      <trkpt lat="43.75098" lon="3.5709">
        <ele>228</ele>
        <time>2021-03-11T09:46:09+01:00</time>
      </trkpt>
      <trkpt lat="43.75074" lon="3.57049">
        <ele>228</ele>
        <time>2021-03-11T09:46:14+01:00</time>
      </trkpt>
      <trkpt lat="43.75072" lon="3.57034">
        <ele>232</ele>
        <time>2021-03-11T09:46:19+01:00</time>
      </trkpt>
      <trkpt lat="43.75068" lon="3.57015">
        <ele>236</ele>
        <time>2021-03-11T09:46:24+01:00</time>
      </trkpt>
      <trkpt lat="43.75029" lon="3.57004">
        <ele>225</ele>
        <time>2021-03-11T09:46:29+01:00</time>
      </trkpt>
      <trkpt lat="43.74995" lon="3.57002">
        <ele>215</ele>
        <time>2021-03-11T09:46:34+01:00</time>
      </trkpt>
      <trkpt lat="43.74948" lon="3.57012">
        <ele>204</ele>
        <time>2021-03-11T09:46:39+01:00</time>
      </trkpt>
      <trkpt lat="43.74931" lon="3.57012">
        <ele>201</ele>
        <time>2021-03-11T09:46:44+01:00</time>
      </trkpt>
      <trkpt lat="43.74902" lon="3.57002">
        <ele>198</ele>
        <time>2021-03-11T09:46:49+01:00</time>
      </trkpt>
      <trkpt lat="43.74878" lon="3.56991">
        <ele>194</ele>
        <time>2021-03-11T09:46:54+01:00</time>
      </trkpt>
      <trkpt lat="43.74844" lon="3.56987">
        <ele>183</ele>
        <time>2021-03-11T09:46:59+01:00</time>
      </trkpt>
      <trkpt lat="43.74835" lon="3.56967">
        <ele>186</ele>
        <time>2021-03-11T09:47:04+01:00</time>
      </trkpt>
      <trkpt lat="43.7483" lon="3.56921">
        <ele>198</ele>
        <time>2021-03-11T09:47:09+01:00</time>
      </trkpt>
      <trkpt lat="43.74821" lon="3.56911">
        <ele>195</ele>
        <time>2021-03-11T09:47:14+01:00</time>
      </trkpt>
      <trkpt lat="43.74808" lon="3.56875">
        <ele>195</ele>
        <time>2021-03-11T09:47:19+01:00</time>
      </trkpt>
      <trkpt lat="43.74798" lon="3.56849">
        <ele>195</ele>
        <time>2021-03-11T09:47:24+01:00</time>
      </trkpt>
      <trkpt lat="43.74773" lon="3.56836">
        <ele>185</ele>
        <time>2021-03-11T09:47:29+01:00</time>
      </trkpt>
      <trkpt lat="43.74757" lon="3.56832">
        <ele>178</ele>
        <time>2021-03-11T09:47:34+01:00</time>
      </trkpt>
      <trkpt lat="43.74737" lon="3.56826">
        <ele>172</ele>
        <time>2021-03-11T09:47:39+01:00</time>
      </trkpt>
      <trkpt lat="43.74703" lon="3.56823">
        <ele>158</ele>
        <time>2021-03-11T09:47:44+01:00</time>
      </trkpt>
      <trkpt lat="43.74695" lon="3.5681">
        <ele>159</ele>
        <time>2021-03-11T09:47:49+01:00</time>
      </trkpt>
      <trkpt lat="43.74673" lon="3.56789">
        <ele>154</ele>
        <time>2021-03-11T09:47:54+01:00</time>
      </trkpt>
      <trkpt lat="43.74638" lon="3.56767">
        <ele>145</ele>
        <time>2021-03-11T09:47:59+01:00</time>
      </trkpt>
      <trkpt lat="43.74616" lon="3.5676">
        <ele>139</ele>
        <time>2021-03-11T09:48:04+01:00</time>
      </trkpt>
      <trkpt lat="43.74595" lon="3.56762">
        <ele>130</ele>
        <time>2021-03-11T09:48:09+01:00</time>
      </trkpt>
      <trkpt lat="43.74585" lon="3.56761">
        <ele>126</ele>
        <time>2021-03-11T09:48:14+01:00</time>
      </trkpt>
      <trkpt lat="43.74578" lon="3.56759">
        <ele>124</ele>
        <time>2021-03-11T09:48:19+01:00</time>
      </trkpt>
      <trkpt lat="43.74571" lon="3.56756">
        <ele>123</ele>
        <time>2021-03-11T09:48:24+01:00</time>
      </trkpt>
      <trkpt lat="43.74566" lon="3.56753">
        <ele>121</ele>
        <time>2021-03-11T09:48:29+01:00</time>
      </trkpt>
      <trkpt lat="43.74564" lon="3.56732">
        <ele>125</ele>
        <time>2021-03-11T09:48:34+01:00</time>
      </trkpt>
      <trkpt lat="43.74564" lon="3.56725">
        <ele>126</ele>
        <time>2021-03-11T09:48:39+01:00</time>
      </trkpt>
      <trkpt lat="43.74537" lon="3.56709">
        <ele>119</ele>
        <time>2021-03-11T09:48:44+01:00</time>
      </trkpt>
      <trkpt lat="43.7453" lon="3.56703">
        <ele>117</ele>
        <time>2021-03-11T09:48:49+01:00</time>
      </trkpt>
      <trkpt lat="43.74522" lon="3.56688">
        <ele>117</ele>
        <time>2021-03-11T09:48:54+01:00</time>
      </trkpt>
      <trkpt lat="43.74523" lon="3.56678">
        <ele>119</ele>
        <time>2021-03-11T09:48:59+01:00</time>
      </trkpt>
      <trkpt lat="43.74508" lon="3.56667">
        <ele>115</ele>
        <time>2021-03-11T09:49:04+01:00</time>
      </trkpt>
      <trkpt lat="43.74499" lon="3.5665">
        <ele>113</ele>
        <time>2021-03-11T09:49:09+01:00</time>
      </trkpt>
      <trkpt lat="43.74495" lon="3.5665">
        <ele>112</ele>
        <time>2021-03-11T09:49:14+01:00</time>
      </trkpt>
      <trkpt lat="43.74484" lon="3.56651">
        <ele>109</ele>
        <time>2021-03-11T09:49:19+01:00</time>
      </trkpt>
      <trkpt lat="43.74472" lon="3.56653">
        <ele>105</ele>
        <time>2021-03-11T09:49:24+01:00</time>
      </trkpt>
      <trkpt lat="43.7447" lon="3.56643">
        <ele>105</ele>
        <time>2021-03-11T09:49:29+01:00</time>
      </trkpt>
      <trkpt lat="43.74465" lon="3.56651">
        <ele>103</ele>
        <time>2021-03-11T09:49:34+01:00</time>
      </trkpt>
      <trkpt lat="43.7446" lon="3.56639">
        <ele>102</ele>
        <time>2021-03-11T09:49:39+01:00</time>
      </trkpt>
      <trkpt lat="43.74452" lon="3.56631">
        <ele>100</ele>
        <time>2021-03-11T09:49:44+01:00</time>
      </trkpt>
      <trkpt lat="43.74444" lon="3.56623">
        <ele>98</ele>
        <time>2021-03-11T09:49:49+01:00</time>
      </trkpt>
      <trkpt lat="43.74437" lon="3.56623">
        <ele>96</ele>
        <time>2021-03-11T09:49:54+01:00</time>
      </trkpt>
      <trkpt lat="43.74432" lon="3.56639">
        <ele>93</ele>
        <time>2021-03-11T09:49:59+01:00</time>
      </trkpt>
      <trkpt lat="43.74426" lon="3.56637">
        <ele>91</ele>
        <time>2021-03-11T09:50:04+01:00</time>
      </trkpt>
      <trkpt lat="43.74418" lon="3.56625">
        <ele>90</ele>
        <time>2021-03-11T09:50:09+01:00</time>
      </trkpt>
      <trkpt lat="43.7441" lon="3.56615">
        <ele>89</ele>
        <time>2021-03-11T09:50:14+01:00</time>
      </trkpt>
      <trkpt lat="43.74394" lon="3.56617">
        <ele>87</ele>
        <time>2021-03-11T09:50:19+01:00</time>
      </trkpt>
      <trkpt lat="43.74369" lon="3.56587">
        <ele>84</ele>
        <time>2021-03-11T09:50:24+01:00</time>
      </trkpt>
      <trkpt lat="43.74362" lon="3.56574">
        <ele>83</ele>
        <time>2021-03-11T09:50:29+01:00</time>
      </trkpt>
      <trkpt lat="43.74358" lon="3.56561">
        <ele>82</ele>
        <time>2021-03-11T09:50:34+01:00</time>
      </trkpt>
      <trkpt lat="43.74357" lon="3.56542">
        <ele>81</ele>
        <time>2021-03-11T09:50:39+01:00</time>
      </trkpt>
      <trkpt lat="43.74357" lon="3.56526">
        <ele>81</ele>
        <time>2021-03-11T09:50:44+01:00</time>
      </trkpt>
      <trkpt lat="43.74361" lon="3.56512">
        <ele>81</ele>
        <time>2021-03-11T09:50:49+01:00</time>
      </trkpt>
      <trkpt lat="43.74351" lon="3.56509">
        <ele>79</ele>
        <time>2021-03-11T09:50:54+01:00</time>
      </trkpt>
      <trkpt lat="43.74352" lon="3.5651">
        <ele>79</ele>
        <time>2021-03-11T09:50:59+01:00</time>
      </trkpt>
      <trkpt lat="43.74344" lon="3.56523">
        <ele>79</ele>
        <time>2021-03-11T09:51:04+01:00</time>
      </trkpt>
      <trkpt lat="43.74341" lon="3.56535">
        <ele>79</ele>
        <time>2021-03-11T09:51:09+01:00</time>
      </trkpt>
      <trkpt lat="43.74342" lon="3.56544">
        <ele>79</ele>
        <time>2021-03-11T09:51:14+01:00</time>
      </trkpt>
      <trkpt lat="43.74345" lon="3.56556">
        <ele>80</ele>
        <time>2021-03-11T09:51:19+01:00</time>
      </trkpt>
      <trkpt lat="43.74345" lon="3.56572">
        <ele>80</ele>
        <time>2021-03-11T09:51:24+01:00</time>
      </trkpt>
    </trkseg>
  </trk>
</gpx>